Time;durP1;ratioP1;P1;durP2;ratioP2;P2;SDS_P1;SDS_P2;PMS_P1;PMS_P2;Temp;Humidity;BMP_temperature;BMP_pressure;BME280_temperature;BME280_humidity;BME280_pressure;Samples;Min_cycle;Max_cycle;Signal;HPM_P1;HPM_P2
2023/04/27 00:01:32;;;;;;;8.85;4.60;;;5.70;99.90;;;;;;5098904;28;20032;-72
2023/04/27 00:03:58;;;;;;;9.35;4.65;;;5.70;99.90;;;;;;5098613;28;20070;-72
2023/04/27 00:06:25;;;;;;;10.45;5.47;;;5.80;99.90;;;;;;5098521;28;20040;-72
2023/04/27 00:08:51;;;;;;;13.85;5.50;;;5.80;99.90;;;;;;5098750;28;20039;-72
2023/04/27 00:11:16;;;;;;;8.52;4.60;;;6.00;99.90;;;;;;5098688;28;20329;-72
2023/04/27 00:13:42;;;;;;;8.98;4.47;;;6.00;99.90;;;;;;5098656;28;20040;-72
2023/04/27 00:16:08;;;;;;;11.23;4.68;;;6.10;99.90;;;;;;5098221;28;20353;-72
2023/04/27 00:18:33;;;;;;;9.10;4.68;;;6.20;99.90;;;;;;5098568;28;20048;-72
2023/04/27 00:20:59;;;;;;;9.55;4.45;;;6.30;99.90;;;;;;5098223;28;20448;-72
2023/04/27 00:23:26;;;;;;;8.32;4.47;;;6.30;99.90;;;;;;5098441;28;20043;-72
2023/04/27 00:25:52;;;;;;;10.63;5.25;;;6.40;99.90;;;;;;5098339;28;20067;-72
2023/04/27 00:28:18;;;;;;;8.65;5.10;;;6.50;99.90;;;;;;5097879;28;20429;-72
2023/04/27 00:30:44;;;;;;;14.23;6.30;;;6.50;99.90;;;;;;5098365;28;20044;-72
2023/04/27 00:33:10;;;;;;;11.95;5.32;;;6.40;99.90;;;;;;5098276;28;20111;-72
2023/04/27 00:35:35;;;;;;;9.90;5.15;;;6.30;99.90;;;;;;5096908;28;20448;-72
2023/04/27 00:38:01;;;;;;;9.35;4.85;;;6.30;99.90;;;;;;5096915;28;20047;-72
2023/04/27 00:40:27;;;;;;;9.68;5.75;;;6.40;99.90;;;;;;5098150;28;20044;-72
2023/04/27 00:42:53;;;;;;;10.80;5.38;;;6.60;99.90;;;;;;5098093;28;20040;-72
2023/04/27 00:45:18;;;;;;;8.73;5.22;;;6.70;99.90;;;;;;5096778;28;20036;-72
2023/04/27 00:47:44;;;;;;;12.43;5.07;;;6.80;99.90;;;;;;5097589;28;20066;-72
2023/04/27 00:50:11;;;;;;;11.80;5.32;;;6.80;99.90;;;;;;5097952;28;20040;-72
2023/04/27 00:52:37;;;;;;;12.52;5.60;;;6.90;99.90;;;;;;5097607;28;20051;-72
2023/04/27 00:55:04;;;;;;;9.70;5.40;;;6.90;99.90;;;;;;5097567;28;20518;-72
2023/04/27 00:57:30;;;;;;;9.27;5.10;;;6.90;99.90;;;;;;5097837;28;20051;-72
2023/04/27 00:59:58;;;;;;;9.32;5.10;;;6.90;99.90;;;;;;5096800;28;20086;-72
2023/04/27 01:02:25;;;;;;;8.88;5.13;;;6.90;99.90;;;;;;5097690;28;20093;-72
2023/04/27 01:04:52;;;;;;;8.23;5.18;;;6.90;99.90;;;;;;5097564;28;20044;-72
2023/04/27 01:07:17;;;;;;;10.25;5.03;;;6.90;99.90;;;;;;5096670;28;20036;-72
2023/04/27 01:09:43;;;;;;;7.97;5.00;;;6.90;99.90;;;;;;5097605;28;20097;-72
2023/04/27 01:12:09;;;;;;;9.80;5.60;;;6.90;99.90;;;;;;5097523;28;20367;-72
2023/04/27 01:14:38;;;;;;;10.07;5.35;;;6.80;99.90;;;;;;5097625;28;20039;-72
2023/04/27 01:17:03;;;;;;;10.32;5.68;;;6.70;99.90;;;;;;5097004;28;20044;-72
2023/04/27 01:19:29;;;;;;;9.07;5.03;;;6.60;99.90;;;;;;5097424;28;20051;-72
2023/04/27 01:21:54;;;;;;;13.18;5.55;;;6.50;99.90;;;;;;5097386;28;20035;-72
2023/04/27 01:24:20;;;;;;;9.38;5.10;;;6.50;99.90;;;;;;5096300;28;20043;-72
2023/04/27 01:26:46;;;;;;;10.63;5.18;;;6.30;99.90;;;;;;5097360;28;20039;-72
2023/04/27 01:29:11;;;;;;;9.63;4.75;;;6.30;99.90;;;;;;5096923;28;20127;-71
2023/04/27 01:31:37;;;;;;;10.35;5.65;;;6.10;99.90;;;;;;5097271;28;20040;-72
2023/04/27 01:34:03;;;;;;;8.68;4.40;;;6.20;99.90;;;;;;5097221;28;20046;-72
2023/04/27 01:36:29;;;;;;;9.43;5.10;;;6.10;99.90;;;;;;5097181;28;20039;-72
2023/04/27 01:38:54;;;;;;;8.85;5.40;;;5.90;99.90;;;;;;5097171;28;20044;-72
2023/04/27 01:41:20;;;;;;;7.55;4.25;;;5.80;99.90;;;;;;5097022;28;20040;-72
2023/04/27 01:43:46;;;;;;;10.15;5.13;;;5.80;99.90;;;;;;5097082;28;20123;-72
2023/04/27 01:46:13;;;;;;;8.63;5.00;;;5.70;99.90;;;;;;5096659;28;20119;-72
2023/04/27 01:48:40;;;;;;;10.23;4.43;;;5.70;99.90;;;;;;5096994;28;20385;-72
2023/04/27 01:51:05;;;;;;;9.68;5.13;;;5.80;99.90;;;;;;5096726;28;20452;-72
2023/04/27 01:53:31;;;;;;;8.93;4.80;;;5.60;99.90;;;;;;5096983;28;20032;-72
2023/04/27 01:55:58;;;;;;;11.85;5.72;;;5.60;99.90;;;;;;5096679;28;20043;-72
2023/04/27 01:58:24;;;;;;;9.60;4.75;;;5.60;99.90;;;;;;5097091;28;20047;-72
2023/04/27 02:00:50;;;;;;;8.65;4.20;;;5.50;99.90;;;;;;5096855;28;20035;-72
2023/04/27 02:03:16;;;;;;;8.50;4.80;;;5.40;99.90;;;;;;5096586;28;20121;-72
2023/04/27 02:05:42;;;;;;;8.02;4.72;;;5.40;99.90;;;;;;5097394;28;20083;-72
2023/04/27 02:08:08;;;;;;;10.98;4.63;;;5.40;99.90;;;;;;5096821;28;20467;-72
2023/04/27 02:10:35;;;;;;;9.45;5.18;;;5.40;99.90;;;;;;5095726;28;20109;-72
2023/04/27 02:13:00;;;;;;;9.50;4.85;;;5.30;99.90;;;;;;5096749;28;20077;-72
2023/04/27 02:15:26;;;;;;;12.95;4.85;;;5.20;99.90;;;;;;5096787;28;20035;-72
2023/04/27 02:17:52;;;;;;;10.13;5.38;;;5.30;99.90;;;;;;5096370;28;20118;-72
2023/04/27 02:20:17;;;;;;;11.60;5.13;;;5.20;99.90;;;;;;5096671;28;20333;-72
2023/04/27 02:22:43;;;;;;;8.95;4.53;;;5.20;99.90;;;;;;5096664;28;20040;-72
2023/04/27 02:25:11;;;;;;;8.93;4.78;;;5.20;99.90;;;;;;5096627;28;20040;-72
2023/04/27 02:27:40;;;;;;;9.40;5.00;;;5.10;99.90;;;;;;5096661;28;20044;-71
2023/04/27 02:30:08;;;;;;;9.15;5.22;;;5.10;99.90;;;;;;5096087;28;20426;-72
2023/04/27 02:32:34;;;;;;;12.70;5.30;;;5.10;99.90;;;;;;5096282;28;20429;-74
2023/04/27 02:35:01;;;;;;;8.05;4.53;;;5.10;99.90;;;;;;5096571;28;20047;-71
2023/04/27 02:37:26;;;;;;;10.70;5.35;;;5.00;99.90;;;;;;5096596;28;20132;-72
2023/04/27 02:39:52;;;;;;;10.13;5.28;;;5.00;99.90;;;;;;5096520;28;20071;-71
2023/04/27 02:42:18;;;;;;;10.82;5.25;;;5.00;99.90;;;;;;5096447;28;20325;-71
2023/04/27 02:44:43;;;;;;;12.82;5.72;;;5.00;99.90;;;;;;5096397;28;20055;-71
2023/04/27 02:47:10;;;;;;;10.93;5.20;;;4.90;99.90;;;;;;5096043;28;20059;-71
2023/04/27 02:49:36;;;;;;;9.52;5.38;;;4.80;99.90;;;;;;5096186;28;20047;-71
2023/04/27 02:52:02;;;;;;;11.18;4.78;;;4.80;99.90;;;;;;5096141;28;20040;-71
2023/04/27 02:54:27;;;;;;;10.95;5.13;;;4.80;99.90;;;;;;5096372;28;20044;-71
2023/04/27 02:56:53;;;;;;;10.05;5.05;;;4.80;99.90;;;;;;5096068;28;20097;-72
2023/04/27 02:59:19;;;;;;;9.15;5.00;;;4.80;99.90;;;;;;5096349;28;20126;-71
2023/04/27 03:01:45;;;;;;;9.43;5.00;;;4.80;99.90;;;;;;5096318;28;20077;-71
2023/04/27 03:04:12;;;;;;;10.15;5.30;;;4.80;99.90;;;;;;5096293;28;20352;-72
2023/04/27 03:06:40;;;;;;;10.63;5.32;;;4.90;99.90;;;;;;5094881;28;20361;-72
2023/04/27 03:09:05;;;;;;;8.50;5.18;;;4.90;99.90;;;;;;5099552;28;20090;-71
2023/04/27 03:11:31;;;;;;;9.07;5.82;;;5.00;99.90;;;;;;5099910;28;20036;-72
2023/04/27 03:13:57;;;;;;;12.43;5.43;;;5.00;99.90;;;;;;5099840;28;20043;-71
2023/04/27 03:16:23;;;;;;;9.93;5.55;;;4.90;99.90;;;;;;5099372;28;20369;-71
2023/04/27 03:18:48;;;;;;;9.40;5.15;;;4.80;99.90;;;;;;5099723;28;20055;-72
2023/04/27 03:21:15;;;;;;;12.00;5.75;;;4.70;99.90;;;;;;5099644;28;20055;-72
2023/04/27 03:23:41;;;;;;;12.88;5.75;;;4.60;99.90;;;;;;5099661;28;20052;-72
2023/04/27 03:26:12;;;;;;;11.20;5.60;;;4.60;99.90;;;;;;5099500;28;20040;-72
2023/04/27 03:28:38;;;;;;;9.60;5.38;;;4.50;99.90;;;;;;5099133;28;20040;-71
2023/04/27 03:31:09;;;;;;;12.48;5.47;;;4.50;99.90;;;;;;5099499;28;20035;-72
2023/04/27 03:33:35;;;;;;;13.10;6.53;;;4.50;99.90;;;;;;5099515;28;20040;-72
2023/04/27 03:36:03;;;;;;;10.50;5.40;;;4.50;99.90;;;;;;5098910;28;20097;-72
2023/04/27 03:38:29;;;;;;;11.85;6.10;;;4.50;99.90;;;;;;5099409;28;20109;-72
2023/04/27 03:40:55;;;;;;;8.90;5.65;;;4.50;99.90;;;;;;5099335;28;20325;-72
2023/04/27 03:43:21;;;;;;;9.93;5.47;;;4.40;99.90;;;;;;5098001;28;20054;-72
2023/04/27 03:45:47;;;;;;;12.65;6.10;;;4.40;99.90;;;;;;5099166;28;20095;-72
2023/04/27 03:48:14;;;;;;;11.45;5.40;;;4.30;99.90;;;;;;5098485;28;20138;-72
2023/04/27 03:50:40;;;;;;;11.80;6.32;;;4.20;99.90;;;;;;5099142;28;20051;-72
2023/04/27 03:53:06;;;;;;;13.15;5.75;;;4.30;99.90;;;;;;5099057;28;20032;-72
2023/04/27 03:55:32;;;;;;;12.27;6.38;;;4.30;99.90;;;;;;5099084;28;20376;-72
2023/04/27 03:57:57;;;;;;;15.70;5.78;;;4.30;99.90;;;;;;5098982;28;20090;-72
2023/04/27 04:00:23;;;;;;;11.43;5.85;;;4.20;99.90;;;;;;5097894;28;20052;-72
2023/04/27 04:02:51;;;;;;;12.15;6.15;;;4.20;99.90;;;;;;5098883;28;20042;-72
2023/04/27 04:05:17;;;;;;;14.60;5.90;;;4.20;99.90;;;;;;5098450;28;20040;-72
2023/04/27 04:07:43;;;;;;;9.25;4.90;;;4.20;99.90;;;;;;5098826;28;20036;-72
2023/04/27 04:10:09;;;;;;;12.63;5.50;;;4.20;99.90;;;;;;5098743;28;20444;-72
2023/04/27 04:12:35;;;;;;;12.00;5.80;;;4.20;99.90;;;;;;5098725;28;20069;-72
2023/04/27 04:15:02;;;;;;;13.73;6.55;;;4.30;99.90;;;;;;5098392;28;20445;-72
2023/04/27 04:17:28;;;;;;;10.23;5.30;;;4.30;99.90;;;;;;5098142;28;20044;-72
2023/04/27 04:19:54;;;;;;;10.60;5.68;;;4.30;99.90;;;;;;5098415;28;20043;-72
2023/04/27 04:22:20;;;;;;;12.07;6.03;;;4.30;99.90;;;;;;5097542;28;20058;-72
2023/04/27 04:24:46;;;;;;;10.73;6.05;;;4.40;99.90;;;;;;5098372;28;20044;-72
2023/04/27 04:27:12;;;;;;;10.80;5.47;;;4.50;99.90;;;;;;5097062;28;20101;-72
2023/04/27 04:29:38;;;;;;;11.90;6.00;;;4.40;99.90;;;;;;5097949;28;20052;-71
2023/04/27 04:32:04;;;;;;;13.38;5.88;;;4.40;99.90;;;;;;5098271;28;20054;-72
2023/04/27 04:34:30;;;;;;;10.73;5.22;;;4.50;99.90;;;;;;5098265;28;20370;-72
2023/04/27 04:36:56;;;;;;;10.85;6.03;;;4.50;99.90;;;;;;5098213;28;20079;-72
2023/04/27 04:39:22;;;;;;;9.98;5.82;;;4.60;99.90;;;;;;5098138;28;20059;-71
2023/04/27 04:41:48;;;;;;;9.80;5.72;;;4.70;99.90;;;;;;5098133;28;20039;-72
2023/04/27 04:44:15;;;;;;;11.20;5.75;;;4.70;99.90;;;;;;5097973;28;20047;-71
2023/04/27 04:46:41;;;;;;;11.23;5.97;;;4.90;99.90;;;;;;5097571;28;20100;-71
2023/04/27 04:49:07;;;;;;;10.77;5.80;;;5.00;99.90;;;;;;5097708;28;20492;-71
2023/04/27 04:51:33;;;;;;;11.95;6.40;;;5.10;99.90;;;;;;5096997;28;20119;-71
2023/04/27 04:53:59;;;;;;;9.70;5.55;;;5.10;99.90;;;;;;5097898;28;20120;-72
2023/04/27 04:56:25;;;;;;;12.10;6.13;;;5.20;99.90;;;;;;5097554;28;20047;-72
2023/04/27 04:58:50;;;;;;;14.05;7.13;;;5.30;99.90;;;;;;5097594;28;20115;-71
2023/04/27 05:01:16;;;;;;;12.07;6.45;;;5.40;99.90;;;;;;5097744;28;20371;-71
2023/04/27 05:03:42;;;;;;;14.27;6.00;;;5.50;99.90;;;;;;5096712;28;20337;-71
2023/04/27 05:06:07;;;;;;;11.10;6.20;;;5.50;99.90;;;;;;5097578;28;20036;-71
2023/04/27 05:08:33;;;;;;;12.65;5.75;;;5.50;99.90;;;;;;5097660;28;20040;-72
2023/04/27 05:10:59;;;;;;;11.88;6.20;;;5.60;99.90;;;;;;5097617;28;20032;-71
2023/04/27 05:13:25;;;;;;;13.25;6.88;;;5.60;99.90;;;;;;5096494;28;20048;-72
2023/04/27 05:15:51;;;;;;;11.98;6.50;;;5.70;99.90;;;;;;5096474;28;20446;-72
2023/04/27 05:18:17;;;;;;;12.15;6.18;;;5.70;99.90;;;;;;5096762;28;20124;-71
2023/04/27 05:20:43;;;;;;;11.50;6.32;;;5.80;99.90;;;;;;5097486;28;20118;-72
2023/04/27 05:23:09;;;;;;;12.40;5.80;;;5.90;99.90;;;;;;5097434;28;20118;-71
2023/04/27 05:25:40;;;;;;;10.80;5.93;;;6.00;99.90;;;;;;5097289;28;20039;-72
2023/04/27 05:28:07;;;;;;;11.40;5.57;;;6.00;99.90;;;;;;5097155;28;20360;-71
2023/04/27 05:30:33;;;;;;;14.50;6.13;;;6.10;99.90;;;;;;5096455;28;20056;-72
2023/04/27 05:32:59;;;;;;;15.50;6.32;;;6.10;99.90;;;;;;5097303;28;20311;-72
2023/04/27 05:35:24;;;;;;;9.90;5.88;;;6.20;99.90;;;;;;5097192;28;20040;-71
2023/04/27 05:37:51;;;;;;;10.73;5.78;;;6.30;99.90;;;;;;5096877;28;20166;-71
2023/04/27 05:40:16;;;;;;;11.02;5.90;;;6.40;99.90;;;;;;5097056;28;20044;-72
2023/04/27 05:42:44;;;;;;;12.52;6.10;;;6.50;99.90;;;;;;5096104;28;20043;-71
2023/04/27 05:45:10;;;;;;;9.73;5.90;;;6.60;99.90;;;;;;5097031;28;20071;-71
2023/04/27 05:47:36;;;;;;;12.98;5.90;;;6.70;99.90;;;;;;5096496;28;20090;-72
2023/04/27 05:50:02;;;;;;;12.07;6.20;;;6.80;99.90;;;;;;5097008;28;20063;-72
2023/04/27 05:52:29;;;;;;;12.18;5.95;;;6.90;99.90;;;;;;5097034;28;20047;-71
2023/04/27 05:54:56;;;;;;;9.90;4.97;;;7.00;99.90;;;;;;5097071;28;20036;-72
2023/04/27 05:57:21;;;;;;;9.13;5.55;;;6.70;99.90;;;;;;5096940;28;20135;-71
2023/04/27 05:59:47;;;;;;;11.23;5.30;;;6.60;99.90;;;;;;5096611;28;20437;-72
2023/04/27 06:02:13;;;;;;;10.55;4.78;;;6.70;99.90;;;;;;5096867;28;20082;-71
2023/04/27 06:04:39;;;;;;;9.93;5.18;;;6.90;99.90;;;;;;5096751;28;20047;-72
2023/04/27 06:07:12;;;;;;;11.73;5.70;;;6.90;99.90;;;;;;5096859;28;20044;-71
2023/04/27 06:09:38;;;;;;;12.23;5.40;;;7.00;99.90;;;;;;5096801;28;20038;-71
2023/04/27 06:12:04;;;;;;;9.38;5.47;;;7.20;99.90;;;;;;5096747;28;20419;-72
2023/04/27 06:14:32;;;;;;;11.95;4.72;;;7.40;99.90;;;;;;5096511;28;20047;-72
2023/04/27 06:16:57;;;;;;;7.68;4.38;;;7.50;99.90;;;;;;5095283;28;20051;-72
2023/04/27 06:19:23;;;;;;;8.88;4.95;;;7.60;99.90;;;;;;5096721;28;20040;-72
2023/04/27 06:21:50;;;;;;;10.05;4.95;;;7.70;99.90;;;;;;5095736;28;20046;-72
2023/04/27 06:24:16;;;;;;;11.77;5.65;;;7.80;99.90;;;;;;5096376;28;20493;-72
2023/04/27 06:26:41;;;;;;;10.85;4.85;;;8.00;99.90;;;;;;5096259;28;20127;-71
2023/04/27 06:29:07;;;;;;;11.57;4.72;;;7.80;99.90;;;;;;5096105;28;20058;-72
2023/04/27 06:31:33;;;;;;;9.52;4.43;;;7.80;99.90;;;;;;5096621;28;20065;-71
2023/04/27 06:34:00;;;;;;;10.88;4.28;;;7.90;99.90;;;;;;5096558;28;20028;-72
2023/04/27 06:36:27;;;;;;;8.32;4.13;;;7.90;99.90;;;;;;5096549;28;20059;-72
2023/04/27 06:38:55;;;;;;;9.55;4.53;;;8.10;99.90;;;;;;5096589;28;20098;-72
2023/04/27 06:41:21;;;;;;;9.43;3.75;;;8.20;99.90;;;;;;5096540;28;20079;-72
2023/04/27 06:43:47;;;;;;;10.38;4.70;;;8.30;99.90;;;;;;5099557;28;20040;-72
2023/04/27 06:46:13;;;;;;;7.50;3.90;;;8.40;99.90;;;;;;5099534;28;20052;-72
2023/04/27 06:48:39;;;;;;;8.05;3.80;;;8.40;99.90;;;;;;5099258;28;20413;-71
2023/04/27 06:51:06;;;;;;;8.35;3.50;;;8.60;99.90;;;;;;5100011;28;20460;-71
2023/04/27 06:53:31;;;;;;;9.50;4.03;;;8.60;99.90;;;;;;5099920;28;20425;-72
2023/04/27 06:55:57;;;;;;;9.05;3.70;;;8.80;99.90;;;;;;5100192;28;20040;-72
2023/04/27 06:58:23;;;;;;;5.95;3.00;;;8.70;99.90;;;;;;5098562;28;20040;-72
2023/04/27 07:00:49;;;;;;;4.90;3.08;;;8.80;99.90;;;;;;5098355;28;20095;-72
2023/04/27 07:03:14;;;;;;;11.07;5.25;;;8.80;99.90;;;;;;5099184;28;20333;-72
2023/04/27 07:05:40;;;;;;;8.75;3.03;;;8.80;99.90;;;;;;5098488;28;20051;-72
2023/04/27 07:08:06;;;;;;;8.68;3.17;;;8.80;99.90;;;;;;5099974;28;20039;-72
2023/04/27 07:10:32;;;;;;;11.75;2.90;;;8.80;99.90;;;;;;5100001;28;20109;-69
2023/04/27 07:12:57;;;;;;;5.95;2.90;;;8.80;99.90;;;;;;5099859;28;20306;-69
2023/04/27 07:15:23;;;;;;;6.10;3.03;;;8.80;99.90;;;;;;5099865;28;20047;-70
2023/04/27 07:17:52;;;;;;;4.65;2.70;;;8.80;99.90;;;;;;5099511;28;20421;-68
2023/04/27 07:20:19;;;;;;;11.73;3.20;;;8.80;99.90;;;;;;5099774;28;20071;-68
2023/04/27 07:22:44;;;;;;;7.53;3.67;;;8.90;99.90;;;;;;5098780;28;20036;-68
2023/04/27 07:25:10;;;;;;;7.35;2.90;;;9.00;99.90;;;;;;5099562;28;20051;-68
2023/04/27 07:27:37;;;;;;;7.80;2.90;;;9.00;99.90;;;;;;5081725;28;20093;-68
2023/04/27 07:30:04;;;;;;;6.10;2.38;;;9.10;99.90;;;;;;5097714;28;20040;-69
2023/04/27 07:32:30;;;;;;;8.55;2.90;;;9.30;99.90;;;;;;5099511;28;20036;-68
2023/04/27 07:34:55;;;;;;;7.75;2.58;;;9.50;99.90;;;;;;5098459;28;20435;-67
2023/04/27 07:37:22;;;;;;;4.15;2.50;;;9.50;99.90;;;;;;5099404;28;20075;-68
2023/04/27 07:39:50;;;;;;;5.80;2.38;;;9.50;99.90;;;;;;5099350;28;20051;-69
2023/04/27 07:42:17;;;;;;;10.63;2.60;;;9.40;99.90;;;;;;5098269;28;20329;-68
2023/04/27 07:44:43;;;;;;;8.02;2.00;;;9.40;99.90;;;;;;5099220;28;20071;-73
2023/04/27 07:47:09;;;;;;;3.67;1.80;;;9.40;99.90;;;;;;5098887;28;20393;-73
2023/04/27 07:49:36;;;;;;;5.15;1.80;;;9.30;99.90;;;;;;5099196;28;20040;-73
2023/04/27 07:52:03;;;;;;;5.38;2.05;;;9.20;99.90;;;;;;5099059;28;20044;-73
2023/04/27 07:54:29;;;;;;;5.05;1.85;;;9.30;99.90;;;;;;5098621;28;20040;-73
2023/04/27 07:56:55;;;;;;;5.22;1.98;;;9.30;99.90;;;;;;5098816;28;20460;-69
2023/04/27 07:59:20;;;;;;;5.55;2.30;;;9.40;99.90;;;;;;5098760;28;20035;-69
2023/04/27 08:01:46;;;;;;;5.00;2.17;;;9.60;99.90;;;;;;5098911;28;20405;-70
2023/04/27 08:04:12;;;;;;;5.50;1.95;;;9.90;99.90;;;;;;5098711;28;20042;-69
2023/04/27 08:06:38;;;;;;;3.35;1.90;;;10.00;99.90;;;;;;5098794;28;20039;-69
2023/04/27 08:09:04;;;;;;;5.80;2.60;;;10.10;99.90;;;;;;5098805;28;20040;-68
2023/04/27 08:11:30;;;;;;;6.15;3.15;;;10.30;99.90;;;;;;5098761;28;20036;-69
2023/04/27 08:13:56;;;;;;;7.22;2.42;;;10.40;99.90;;;;;;5098695;28;20032;-68
2023/04/27 08:16:22;;;;;;;4.60;2.15;;;10.50;99.90;;;;;;5098220;28;20036;-69
2023/04/27 08:18:48;;;;;;;3.65;2.00;;;10.30;99.90;;;;;;5098621;28;20058;-68
2023/04/27 08:21:14;;;;;;;5.40;2.20;;;10.10;99.90;;;;;;5098557;28;20071;-70
2023/04/27 08:23:41;;;;;;;6.78;3.53;;;10.00;99.90;;;;;;5098263;28;20040;-67
2023/04/27 08:26:06;;;;;;;5.38;2.00;;;10.30;99.90;;;;;;5088798;28;20063;-68
2023/04/27 08:28:32;;;;;;;5.38;2.05;;;10.50;99.90;;;;;;5088042;28;20028;-68
2023/04/27 08:30:58;;;;;;;5.75;2.28;;;10.70;99.90;;;;;;5100555;28;20047;-68
2023/04/27 08:33:24;;;;;;;7.38;2.55;;;10.80;99.90;;;;;;5076904;28;20045;-68
2023/04/27 08:35:52;;;;;;;6.43;2.40;;;10.90;99.90;;;;;;5097030;28;20429;-68
2023/04/27 08:38:18;;;;;;;6.05;2.38;;;11.10;99.90;;;;;;5095998;28;20051;-68
2023/04/27 08:40:44;;;;;;;6.82;1.60;;;11.10;99.90;;;;;;5094577;28;20047;-68
2023/04/27 08:43:10;;;;;;;5.97;2.15;;;11.00;99.90;;;;;;5094419;28;20035;-69
2023/04/27 08:45:36;;;;;;;5.05;2.10;;;11.00;99.90;;;;;;5093308;28;20567;-71
2023/04/27 08:48:02;;;;;;;6.43;2.00;;;11.20;99.90;;;;;;5096370;28;20072;-68
2023/04/27 08:50:28;;;;;;;8.48;2.28;;;11.40;99.90;;;;;;5097032;28;20074;-68
2023/04/27 08:52:54;;;;;;;8.25;1.95;;;11.20;99.90;;;;;;5096605;28;20048;-68
2023/04/27 08:55:20;;;;;;;4.93;1.98;;;11.20;99.90;;;;;;5097944;28;20349;-68
2023/04/27 08:57:56;;;;;;;4.45;2.35;;;11.10;99.90;;;;;;5096881;28;20044;-68
2023/04/27 09:00:23;;;;;;;6.47;1.83;;;11.00;99.90;;;;;;5098161;28;20039;-68
2023/04/27 09:02:49;;;;;;;5.10;2.08;;;10.80;99.90;;;;;;5097810;28;20047;-68
2023/04/27 09:05:19;;;;;;;2.63;1.48;;;11.20;99.90;;;;;;5096950;28;20032;-67
2023/04/27 09:08:04;;;;;;;5.57;2.25;;;11.60;99.90;;;;;;5097958;28;20097;-68
2023/04/27 09:10:41;;;;;;;7.22;2.70;;;11.70;99.90;;;;;;5097404;28;20036;-67
2023/04/27 09:13:07;;;;;;;5.50;2.13;;;11.50;99.90;;;;;;5097674;28;20047;-68
2023/04/27 09:15:44;;;;;;;4.45;2.00;;;11.40;99.90;;;;;;5113484;28;20048;-67
2023/04/27 09:18:18;;;;;;;5.63;2.28;;;11.60;99.90;;;;;;5097187;28;20111;-68
2023/04/27 09:20:48;;;;;;;7.43;2.30;;;11.70;99.90;;;;;;5097544;28;20355;-69
2023/04/27 09:23:35;;;;;;;4.38;1.90;;;11.80;99.90;;;;;;5097438;28;20096;-68
2023/04/27 09:26:04;;;;;;;5.00;2.30;;;12.00;99.90;;;;;;5097359;28;20040;-69
2023/04/27 09:28:31;;;;;;;8.88;2.13;;;12.10;99.90;;;;;;5097371;28;20405;-69
2023/04/27 09:30:58;;;;;;;5.93;1.80;;;11.80;99.90;;;;;;5096970;28;20088;-69
2023/04/27 09:33:25;;;;;;;5.68;2.20;;;11.70;99.90;;;;;;5097267;28;20098;-70
2023/04/27 09:35:51;;;;;;;5.18;2.03;;;11.90;99.90;;;;;;5096956;28;20051;-69
2023/04/27 09:38:22;;;;;;;4.45;2.40;;;11.80;99.90;;;;;;5097220;28;20036;-69
2023/04/27 09:40:51;;;;;;;5.95;2.30;;;11.70;99.90;;;;;;5097154;28;20044;-70
2023/04/27 09:43:18;;;;;;;3.35;1.67;;;12.10;99.90;;;;;;5097151;28;20078;-69
2023/04/27 09:45:44;;;;;;;8.85;2.38;;;12.20;99.90;;;;;;5097047;28;20047;-68
2023/04/27 09:48:10;;;;;;;6.07;2.28;;;12.40;99.90;;;;;;5096358;28;20119;-70
2023/04/27 09:50:39;;;;;;;5.32;2.17;;;12.80;99.90;;;;;;5097076;28;20035;-70
2023/04/27 09:53:09;;;;;;;5.65;2.72;;;12.60;99.90;;;;;;5096539;28;20036;-69
2023/04/27 09:56:27;;;;;;;7.35;2.83;;;12.20;99.90;;;;;;5097025;28;20052;-69
2023/04/27 09:58:58;;;;;;;6.90;2.63;;;12.30;99.90;;;;;;5034695;28;20439;-75
2023/04/27 10:01:40;;;;;;;5.95;2.92;;;12.50;99.90;;;;;;5093534;28;20127;-70
2023/04/27 10:04:15;;;;;;;4.38;2.80;;;12.50;99.90;;;;;;5096962;28;20077;-71
2023/04/27 10:07:03;;;;;;;6.22;2.90;;;12.60;99.90;;;;;;5096914;28;20174;-70
2023/04/27 10:10:00;;;;;;;7.60;2.33;;;12.50;99.90;;;;;;5096844;28;20072;-69
2023/04/27 10:12:36;;;;;;;8.25;3.97;;;12.40;99.90;;;;;;5095752;28;20051;-69
2023/04/27 10:15:15;;;;;;;11.63;3.70;;;12.50;99.90;;;;;;5096530;28;20040;-69
2023/04/27 10:17:57;;;;;;;8.80;3.83;;;12.60;99.90;;;;;;5099579;28;20040;-69
2023/04/27 10:20:35;;;;;;;6.00;3.33;;;12.60;99.90;;;;;;5101033;28;20074;-73
2023/04/27 10:23:01;;;;;;;6.38;3.33;;;12.20;99.90;;;;;;5101289;28;20162;-73
2023/04/27 10:25:28;;;;;;;12.32;3.78;;;11.80;99.90;;;;;;5100717;28;20072;-73
2023/04/27 10:28:00;;;;;;;7.93;3.67;;;12.00;99.90;;;;;;5100753;28;20343;-73
2023/04/27 10:30:36;;;;;;;10.27;3.33;;;12.10;99.90;;;;;;5099255;28;20353;-73
2023/04/27 10:33:07;;;;;;;7.03;3.50;;;11.80;99.90;;;;;;5100434;28;20492;-73
2023/04/27 10:35:34;;;;;;;9.30;3.28;;;11.80;99.90;;;;;;5100654;28;20333;-73
2023/04/27 10:38:08;;;;;;;5.53;3.38;;;11.90;99.90;;;;;;5100276;28;20042;-73
2023/04/27 10:40:34;;;;;;;11.25;3.78;;;12.00;99.90;;;;;;5099490;28;20417;-73
2023/04/27 10:43:14;;;;;;;7.88;3.42;;;12.20;99.90;;;;;;5100451;28;20047;-73
2023/04/27 10:45:42;;;;;;;10.75;3.42;;;12.00;99.90;;;;;;5099223;28;20075;-73
2023/04/27 10:48:08;;;;;;;7.90;3.85;;;11.90;99.90;;;;;;5098692;28;20044;-73
2023/04/27 10:50:34;;;;;;;8.23;4.20;;;12.00;99.90;;;;;;5099102;28;20035;-73
2023/04/27 10:53:05;;;;;;;8.73;3.53;;;12.20;99.90;;;;;;5100336;28;20039;-73
2023/04/27 10:55:31;;;;;;;8.95;3.85;;;12.30;99.90;;;;;;5100327;28;20306;-73
2023/04/27 10:57:58;;;;;;;7.45;4.07;;;12.30;99.90;;;;;;5100214;28;20069;-73
2023/04/27 11:00:24;;;;;;;7.57;4.05;;;12.30;99.90;;;;;;5100171;28;20036;-73
2023/04/27 11:02:50;;;;;;;10.70;3.70;;;12.10;99.90;;;;;;5100118;28;20051;-73
2023/04/27 11:05:28;;;;;;;10.15;4.18;;;11.70;99.90;;;;;;5100031;28;20040;-73
2023/04/27 11:08:07;;;;;;;7.57;3.60;;;11.90;99.90;;;;;;5100066;28;20449;-70
2023/04/27 11:10:36;;;;;;;7.90;3.85;;;11.90;99.90;;;;;;5099753;28;20047;-69
2023/04/27 11:13:10;;;;;;;8.43;3.85;;;12.40;99.90;;;;;;5099939;28;20321;-68
2023/04/27 11:15:53;;;;;;;9.30;3.72;;;12.50;99.90;;;;;;5099492;28;20336;-69
2023/04/27 11:18:21;;;;;;;7.80;4.75;;;12.70;99.90;;;;;;5099543;28;20040;-69
2023/04/27 11:20:49;;;;;;;9.70;4.47;;;12.90;99.90;;;;;;5099795;28;20040;-69
2023/04/27 11:23:26;;;;;;;8.93;3.40;;;13.00;99.90;;;;;;5099468;28;20056;-69
2023/04/27 11:25:51;;;;;;;8.48;4.35;;;13.20;99.90;;;;;;5099614;28;20040;-69
2023/04/27 11:28:18;;;;;;;7.70;3.88;;;13.50;99.90;;;;;;5098489;28;20040;-69
2023/04/27 11:30:44;;;;;;;8.48;3.83;;;13.70;99.90;;;;;;5099172;28;20056;-69
2023/04/27 11:33:10;;;;;;;6.35;3.50;;;13.80;99.90;;;;;;5099239;28;20061;-69
2023/04/27 11:35:36;;;;;;;10.30;3.92;;;13.80;99.90;;;;;;5099483;28;20059;-69
2023/04/27 11:38:02;;;;;;;9.50;3.92;;;14.00;99.90;;;;;;5099467;28;20379;-69
2023/04/27 11:40:28;;;;;;;9.93;4.18;;;14.20;99.90;;;;;;5099427;28;20047;-74
2023/04/27 11:43:02;;;;;;;7.10;3.70;;;13.90;99.90;;;;;;5115132;28;20044;-70
2023/04/27 11:45:29;;;;;;;11.00;3.80;;;13.50;99.90;;;;;;5088410;28;20036;-70
2023/04/27 11:47:57;;;;;;;6.40;3.90;;;13.70;99.90;;;;;;5097458;28;20335;-69
2023/04/27 11:50:25;;;;;;;9.52;4.03;;;13.90;99.90;;;;;;5092607;28;20048;-69
2023/04/27 11:52:52;;;;;;;8.88;4.45;;;14.00;99.90;;;;;;5094194;28;20037;-69
2023/04/27 11:55:20;;;;;;;8.68;4.05;;;14.00;99.90;;;;;;5078655;28;20490;-69
2023/04/27 11:57:46;;;;;;;5.82;3.78;;;13.60;99.90;;;;;;5088668;28;20043;-70
2023/04/27 12:00:13;;;;;;;11.82;4.13;;;13.50;99.90;;;;;;5098200;28;20040;-69
2023/04/27 12:02:41;;;;;;;8.60;4.05;;;13.50;99.90;;;;;;5097455;28;20067;-71
2023/04/27 12:05:08;;;;;;;7.20;4.10;;;13.50;99.90;;;;;;5098377;28;20127;-69
2023/04/27 12:07:34;;;;;;;10.13;4.95;;;13.50;99.90;;;;;;5095584;28;20419;-69
2023/04/27 12:09:59;;;;;;;8.27;4.22;;;13.50;99.90;;;;;;5095310;28;20036;-69
2023/04/27 12:12:26;;;;;;;9.65;3.83;;;13.50;99.90;;;;;;5095719;28;20364;-72
2023/04/27 12:14:52;;;;;;;9.07;3.78;;;13.50;99.90;;;;;;5087456;28;20037;-73
2023/04/27 12:17:18;;;;;;;8.50;3.70;;;13.10;99.90;;;;;;5076183;28;20422;-72
2023/04/27 12:19:49;;;;;;;9.40;4.40;;;12.80;99.90;;;;;;5078360;28;20033;-68
2023/04/27 12:22:15;;;;;;;6.03;3.70;;;12.80;99.90;;;;;;5078423;28;20349;-70
2023/04/27 12:24:41;;;;;;;9.60;4.53;;;12.90;99.90;;;;;;5078215;28;20037;-69
2023/04/27 12:27:07;;;;;;;8.73;4.30;;;13.00;99.90;;;;;;5078169;28;20067;-72
2023/04/27 12:29:32;;;;;;;7.68;4.15;;;13.10;99.90;;;;;;5078386;28;20125;-80
2023/04/27 12:31:58;;;;;;;9.15;4.47;;;12.90;99.90;;;;;;5077119;28;20434;-68
2023/04/27 12:34:25;;;;;;;7.22;3.78;;;13.00;99.90;;;;;;5078089;28;20125;-68
2023/04/27 12:36:51;;;;;;;10.48;4.05;;;13.20;99.90;;;;;;5077032;28;20040;-70
2023/04/27 12:39:18;;;;;;;8.88;3.70;;;13.40;99.90;;;;;;5076661;28;20123;-69
2023/04/27 12:41:45;;;;;;;5.50;3.80;;;13.80;99.90;;;;;;5077937;28;20337;-69
2023/04/27 12:44:12;;;;;;;7.25;3.53;;;14.00;99.90;;;;;;5077901;28;20377;-69
2023/04/27 12:46:41;;;;;;;9.13;3.70;;;14.00;99.90;;;;;;5077356;28;20071;-70
2023/04/27 12:49:07;;;;;;;18.35;4.35;;;14.40;99.90;;;;;;5077797;28;20047;-69
2023/04/27 12:51:34;;;;;;;13.40;3.90;;;14.80;99.90;;;;;;5076727;28;20033;-69